sensor_id;sensor_type;location;lat;lon;timestamp;temperature;humidity
3940;DHT22;1984;48.312;9.244;2023-02-15T00:00:20;-0.50;99.90
3940;DHT22;1984;48.312;9.244;2023-02-15T00:02:45;-0.60;99.90
3940;DHT22;1984;48.312;9.244;2023-02-15T00:05:11;-0.60;99.90
3940;DHT22;1984;48.312;9.244;2023-02-15T00:07:37;-0.60;99.90
3940;DHT22;1984;48.312;9.244;2023-02-15T00:10:03;-0.60;99.90
3940;DHT22;1984;48.312;9.244;2023-02-15T00:12:28;-0.70;99.90
3940;DHT22;1984;48.312;9.244;2023-02-15T00:14:54;-0.70;99.90
3940;DHT22;1984;48.312;9.244;2023-02-15T00:17:20;-0.70;99.90
3940;DHT22;1984;48.312;9.244;2023-02-15T00:19:45;-0.70;99.90
3940;DHT22;1984;48.312;9.244;2023-02-15T00:22:11;-0.70;99.90
3940;DHT22;1984;48.312;9.244;2023-02-15T00:24:36;-0.60;99.90
3940;DHT22;1984;48.312;9.244;2023-02-15T00:27:02;-0.70;99.90
3940;DHT22;1984;48.312;9.244;2023-02-15T00:29:27;-0.70;99.90
3940;DHT22;1984;48.312;9.244;2023-02-15T00:31:53;-0.80;99.90
3940;DHT22;1984;48.312;9.244;2023-02-15T00:34:21;-0.70;99.90
3940;DHT22;1984;48.312;9.244;2023-02-15T00:36:48;-0.80;99.90
3940;DHT22;1984;48.312;9.244;2023-02-15T00:39:14;-0.80;99.90
3940;DHT22;1984;48.312;9.244;2023-02-15T00:41:40;-0.80;99.90
3940;DHT22;1984;48.312;9.244;2023-02-15T00:44:06;-0.80;99.90
3940;DHT22;1984;48.312;9.244;2023-02-15T00:46:32;-0.90;99.90
3940;DHT22;1984;48.312;9.244;2023-02-15T00:48:58;-1.00;99.90
3940;DHT22;1984;48.312;9.244;2023-02-15T00:51:24;-1.10;99.90
3940;DHT22;1984;48.312;9.244;2023-02-15T00:53:50;-1.10;99.90
3940;DHT22;1984;48.312;9.244;2023-02-15T00:56:16;-1.20;99.90
3940;DHT22;1984;48.312;9.244;2023-02-15T00:58:42;-1.20;99.90
3940;DHT22;1984;48.312;9.244;2023-02-15T01:01:10;-1.20;99.90
3940;DHT22;1984;48.312;9.244;2023-02-15T01:03:37;-1.20;99.90
3940;DHT22;1984;48.312;9.244;2023-02-15T01:06:03;-1.10;99.90
3940;DHT22;1984;48.312;9.244;2023-02-15T01:08:29;-1.10;99.90
3940;DHT22;1984;48.312;9.244;2023-02-15T01:10:55;-1.10;99.90
3940;DHT22;1984;48.312;9.244;2023-02-15T01:13:21;-1.00;99.90
3940;DHT22;1984;48.312;9.244;2023-02-15T01:15:53;-0.80;99.90
3940;DHT22;1984;48.312;9.244;2023-02-15T01:18:20;-0.90;99.90
3940;DHT22;1984;48.312;9.244;2023-02-15T01:20:45;-0.90;99.90
3940;DHT22;1984;48.312;9.244;2023-02-15T01:23:12;-1.00;99.90
3940;DHT22;1984;48.312;9.244;2023-02-15T01:25:38;-1.00;99.90
3940;DHT22;1984;48.312;9.244;2023-02-15T01:28:03;-1.00;99.90
3940;DHT22;1984;48.312;9.244;2023-02-15T01:30:29;-1.10;99.90
3940;DHT22;1984;48.312;9.244;2023-02-15T01:32:55;-1.10;99.90
3940;DHT22;1984;48.312;9.244;2023-02-15T01:35:20;-1.10;99.90
3940;DHT22;1984;48.312;9.244;2023-02-15T01:37:46;-1.20;99.90
3940;DHT22;1984;48.312;9.244;2023-02-15T01:40:14;-1.20;99.90
3940;DHT22;1984;48.312;9.244;2023-02-15T01:42:40;-1.30;99.90
3940;DHT22;1984;48.312;9.244;2023-02-15T01:45:16;-1.30;99.90
3940;DHT22;1984;48.312;9.244;2023-02-15T01:47:47;-1.30;99.90
3940;DHT22;1984;48.312;9.244;2023-02-15T01:52:58;-1.30;99.90
3940;DHT22;1984;48.312;9.244;2023-02-15T01:55:31;-1.40;99.90
3940;DHT22;1984;48.312;9.244;2023-02-15T01:57:58;-1.50;99.90
3940;DHT22;1984;48.312;9.244;2023-02-15T02:00:24;-1.50;99.90
3940;DHT22;1984;48.312;9.244;2023-02-15T02:02:53;-1.40;99.90
3940;DHT22;1984;48.312;9.244;2023-02-15T02:05:20;-1.30;99.90
3940;DHT22;1984;48.312;9.244;2023-02-15T02:07:46;-1.50;99.90
3940;DHT22;1984;48.312;9.244;2023-02-15T02:10:18;-1.40;99.90
3940;DHT22;1984;48.312;9.244;2023-02-15T02:12:45;-1.30;99.90
3940;DHT22;1984;48.312;9.244;2023-02-15T02:15:12;-1.40;99.90
3940;DHT22;1984;48.312;9.244;2023-02-15T02:23:22;-1.30;99.90
3940;DHT22;1984;48.312;9.244;2023-02-15T02:34:04;-1.70;99.90
3940;DHT22;1984;48.312;9.244;2023-02-15T02:36:40;-1.70;99.90
3940;DHT22;1984;48.312;9.244;2023-02-15T02:39:30;-1.70;99.90
3940;DHT22;1984;48.312;9.244;2023-02-15T02:42:17;-1.70;99.90
3940;DHT22;1984;48.312;9.244;2023-02-15T02:44:47;-1.70;99.90
3940;DHT22;1984;48.312;9.244;2023-02-15T02:47:29;-1.80;99.90
3940;DHT22;1984;48.312;9.244;2023-02-15T02:50:01;-1.70;99.90
3940;DHT22;1984;48.312;9.244;2023-02-15T02:52:42;-1.70;99.90
3940;DHT22;1984;48.312;9.244;2023-02-15T02:57:50;-1.70;99.90
3940;DHT22;1984;48.312;9.244;2023-02-15T03:00:19;-1.70;99.90
3940;DHT22;1984;48.312;9.244;2023-02-15T03:02:47;-1.80;99.90
3940;DHT22;1984;48.312;9.244;2023-02-15T03:05:19;-1.80;99.90
3940;DHT22;1984;48.312;9.244;2023-02-15T03:07:49;-1.80;99.90
3940;DHT22;1984;48.312;9.244;2023-02-15T03:10:18;-1.80;99.90
3940;DHT22;1984;48.312;9.244;2023-02-15T03:12:46;-1.80;99.90
3940;DHT22;1984;48.312;9.244;2023-02-15T03:15:29;-1.80;99.90
3940;DHT22;1984;48.312;9.244;2023-02-15T03:18:18;-1.80;99.90
3940;DHT22;1984;48.312;9.244;2023-02-15T03:20:45;-1.80;99.90
3940;DHT22;1984;48.312;9.244;2023-02-15T03:23:19;-1.80;99.90
3940;DHT22;1984;48.312;9.244;2023-02-15T03:25:51;-1.80;99.90
3940;DHT22;1984;48.312;9.244;2023-02-15T03:28:23;-1.90;99.90
3940;DHT22;1984;48.312;9.244;2023-02-15T03:30:53;-2.00;99.90
3940;DHT22;1984;48.312;9.244;2023-02-15T03:33:21;-2.00;99.90
3940;DHT22;1984;48.312;9.244;2023-02-15T03:36:09;-2.00;99.90
3940;DHT22;1984;48.312;9.244;2023-02-15T03:38:44;-2.00;99.90
3940;DHT22;1984;48.312;9.244;2023-02-15T03:41:14;-1.90;99.90
3940;DHT22;1984;48.312;9.244;2023-02-15T03:43:57;-1.90;99.90
3940;DHT22;1984;48.312;9.244;2023-02-15T03:46:33;-1.90;99.90
3940;DHT22;1984;48.312;9.244;2023-02-15T03:49:15;-1.90;99.90
3940;DHT22;1984;48.312;9.244;2023-02-15T03:51:45;-1.80;99.90
3940;DHT22;1984;48.312;9.244;2023-02-15T03:54:19;-1.80;99.90
3940;DHT22;1984;48.312;9.244;2023-02-15T03:57:19;-1.80;99.90
3940;DHT22;1984;48.312;9.244;2023-02-15T04:00:24;-1.80;99.90
3940;DHT22;1984;48.312;9.244;2023-02-15T04:05:41;-1.90;99.90
3940;DHT22;1984;48.312;9.244;2023-02-15T04:08:06;-1.90;99.90
3940;DHT22;1984;48.312;9.244;2023-02-15T04:10:32;-1.90;99.90
3940;DHT22;1984;48.312;9.244;2023-02-15T04:13:16;-2.00;99.90
3940;DHT22;1984;48.312;9.244;2023-02-15T04:15:42;-2.00;99.90
3940;DHT22;1984;48.312;9.244;2023-02-15T04:18:26;-2.00;99.90
3940;DHT22;1984;48.312;9.244;2023-02-15T04:21:10;-2.00;99.90
3940;DHT22;1984;48.312;9.244;2023-02-15T04:23:54;-2.00;99.90
3940;DHT22;1984;48.312;9.244;2023-02-15T04:26:38;-2.10;99.90
3940;DHT22;1984;48.312;9.244;2023-02-15T04:29:03;-2.10;99.90
3940;DHT22;1984;48.312;9.244;2023-02-15T04:31:29;-2.00;99.90
3940;DHT22;1984;48.312;9.244;2023-02-15T04:33:54;-2.10;99.90
3940;DHT22;1984;48.312;9.244;2023-02-15T04:36:20;-2.10;99.90
3940;DHT22;1984;48.312;9.244;2023-02-15T04:38:46;-2.00;99.90
3940;DHT22;1984;48.312;9.244;2023-02-15T04:41:11;-2.00;99.90
3940;DHT22;1984;48.312;9.244;2023-02-15T04:43:38;-2.00;99.90
3940;DHT22;1984;48.312;9.244;2023-02-15T04:46:04;-2.00;99.90
3940;DHT22;1984;48.312;9.244;2023-02-15T04:48:30;-2.00;99.90
3940;DHT22;1984;48.312;9.244;2023-02-15T04:50:55;-2.00;99.90
3940;DHT22;1984;48.312;9.244;2023-02-15T04:53:21;-2.10;99.90
3940;DHT22;1984;48.312;9.244;2023-02-15T04:55:46;-2.10;99.90
3940;DHT22;1984;48.312;9.244;2023-02-15T04:58:12;-2.00;99.90
3940;DHT22;1984;48.312;9.244;2023-02-15T05:00:37;-2.00;99.90
3940;DHT22;1984;48.312;9.244;2023-02-15T05:03:03;-2.00;99.90
3940;DHT22;1984;48.312;9.244;2023-02-15T05:05:28;-2.00;99.90
3940;DHT22;1984;48.312;9.244;2023-02-15T05:07:54;-2.00;99.90
3940;DHT22;1984;48.312;9.244;2023-02-15T05:10:20;-2.10;99.90
3940;DHT22;1984;48.312;9.244;2023-02-15T05:12:45;-2.10;99.90
3940;DHT22;1984;48.312;9.244;2023-02-15T05:15:11;-2.20;99.90
3940;DHT22;1984;48.312;9.244;2023-02-15T05:17:36;-2.10;99.90
3940;DHT22;1984;48.312;9.244;2023-02-15T05:20:03;-2.20;99.90
3940;DHT22;1984;48.312;9.244;2023-02-15T05:22:29;-2.20;99.90
3940;DHT22;1984;48.312;9.244;2023-02-15T05:24:55;-2.20;99.90
3940;DHT22;1984;48.312;9.244;2023-02-15T05:27:44;-2.20;99.90
3940;DHT22;1984;48.312;9.244;2023-02-15T05:30:28;-2.20;99.90
3940;DHT22;1984;48.312;9.244;2023-02-15T05:32:53;-2.20;99.90
3940;DHT22;1984;48.312;9.244;2023-02-15T05:35:19;-2.20;99.90
3940;DHT22;1984;48.312;9.244;2023-02-15T05:37:44;-2.20;99.90
3940;DHT22;1984;48.312;9.244;2023-02-15T05:40:10;-2.10;99.90
3940;DHT22;1984;48.312;9.244;2023-02-15T05:42:36;-2.10;99.90
3940;DHT22;1984;48.312;9.244;2023-02-15T05:45:02;-2.10;99.90
3940;DHT22;1984;48.312;9.244;2023-02-15T05:47:29;-2.20;99.90
3940;DHT22;1984;48.312;9.244;2023-02-15T05:49:54;-2.10;99.90
3940;DHT22;1984;48.312;9.244;2023-02-15T05:52:20;-2.20;99.90
3940;DHT22;1984;48.312;9.244;2023-02-15T05:54:45;-2.10;99.90
3940;DHT22;1984;48.312;9.244;2023-02-15T05:57:11;-2.10;99.90
3940;DHT22;1984;48.312;9.244;2023-02-15T05:59:36;-2.10;99.90
3940;DHT22;1984;48.312;9.244;2023-02-15T06:02:02;-2.10;99.90
3940;DHT22;1984;48.312;9.244;2023-02-15T06:04:27;-2.10;99.90
3940;DHT22;1984;48.312;9.244;2023-02-15T06:06:53;-2.20;99.90
3940;DHT22;1984;48.312;9.244;2023-02-15T06:09:18;-2.20;99.90
3940;DHT22;1984;48.312;9.244;2023-02-15T06:11:45;-2.20;99.90
3940;DHT22;1984;48.312;9.244;2023-02-15T06:14:11;-2.20;99.90
3940;DHT22;1984;48.312;9.244;2023-02-15T06:16:36;-2.10;99.90
3940;DHT22;1984;48.312;9.244;2023-02-15T06:19:03;-2.10;99.90
3940;DHT22;1984;48.312;9.244;2023-02-15T06:21:29;-2.20;99.90
3940;DHT22;1984;48.312;9.244;2023-02-15T06:23:55;-2.20;99.90
3940;DHT22;1984;48.312;9.244;2023-02-15T06:26:21;-2.10;99.90
3940;DHT22;1984;48.312;9.244;2023-02-15T06:28:46;-2.10;99.90
3940;DHT22;1984;48.312;9.244;2023-02-15T06:31:12;-2.10;99.90
3940;DHT22;1984;48.312;9.244;2023-02-15T06:33:37;-1.90;99.90
3940;DHT22;1984;48.312;9.244;2023-02-15T06:36:05;-1.80;99.90
3940;DHT22;1984;48.312;9.244;2023-02-15T06:38:30;-1.80;99.90
3940;DHT22;1984;48.312;9.244;2023-02-15T06:40:56;-1.70;99.90
3940;DHT22;1984;48.312;9.244;2023-02-15T06:43:21;-1.70;99.90
3940;DHT22;1984;48.312;9.244;2023-02-15T06:45:47;-1.70;99.90
3940;DHT22;1984;48.312;9.244;2023-02-15T06:48:12;-1.60;99.90
3940;DHT22;1984;48.312;9.244;2023-02-15T06:50:39;-1.60;99.90
3940;DHT22;1984;48.312;9.244;2023-02-15T06:53:05;-1.60;99.90
3940;DHT22;1984;48.312;9.244;2023-02-15T06:55:30;-1.60;99.90
3940;DHT22;1984;48.312;9.244;2023-02-15T06:57:56;-1.60;99.90
3940;DHT22;1984;48.312;9.244;2023-02-15T07:00:22;-1.60;99.90
3940;DHT22;1984;48.312;9.244;2023-02-15T07:02:53;-1.50;99.90
3940;DHT22;1984;48.312;9.244;2023-02-15T07:05:20;-1.50;99.90
3940;DHT22;1984;48.312;9.244;2023-02-15T07:07:46;-1.50;99.90
3940;DHT22;1984;48.312;9.244;2023-02-15T07:10:11;-1.50;99.90
3940;DHT22;1984;48.312;9.244;2023-02-15T07:12:37;-1.50;99.90
3940;DHT22;1984;48.312;9.244;2023-02-15T07:15:16;-1.50;99.90
3940;DHT22;1984;48.312;9.244;2023-02-15T07:17:42;-1.30;99.90
3940;DHT22;1984;48.312;9.244;2023-02-15T07:20:19;-0.90;99.90
3940;DHT22;1984;48.312;9.244;2023-02-15T07:22:45;-0.60;99.90
3940;DHT22;1984;48.312;9.244;2023-02-15T07:25:12;-0.10;99.90
3940;DHT22;1984;48.312;9.244;2023-02-15T07:27:38;0.50;99.90
3940;DHT22;1984;48.312;9.244;2023-02-15T07:30:05;1.10;99.90
3940;DHT22;1984;48.312;9.244;2023-02-15T07:32:32;1.70;99.90
3940;DHT22;1984;48.312;9.244;2023-02-15T07:34:59;2.50;99.90
3940;DHT22;1984;48.312;9.244;2023-02-15T07:37:25;3.20;99.90
3940;DHT22;1984;48.312;9.244;2023-02-15T07:39:51;3.80;99.90
3940;DHT22;1984;48.312;9.244;2023-02-15T07:42:16;4.50;99.90
3940;DHT22;1984;48.312;9.244;2023-02-15T07:44:43;5.30;99.90
3940;DHT22;1984;48.312;9.244;2023-02-15T07:47:08;6.40;99.90
3940;DHT22;1984;48.312;9.244;2023-02-15T07:49:34;7.30;99.90
3940;DHT22;1984;48.312;9.244;2023-02-15T07:52:00;8.20;99.90
3940;DHT22;1984;48.312;9.244;2023-02-15T07:54:27;9.00;99.90
3940;DHT22;1984;48.312;9.244;2023-02-15T07:56:52;9.70;99.90
3940;DHT22;1984;48.312;9.244;2023-02-15T07:59:18;10.30;99.90
3940;DHT22;1984;48.312;9.244;2023-02-15T08:01:43;11.00;99.90
3940;DHT22;1984;48.312;9.244;2023-02-15T08:04:09;11.40;99.90
3940;DHT22;1984;48.312;9.244;2023-02-15T08:06:37;11.70;99.90
3940;DHT22;1984;48.312;9.244;2023-02-15T08:09:07;11.90;99.50
3940;DHT22;1984;48.312;9.244;2023-02-15T08:11:35;12.30;99.40
3940;DHT22;1984;48.312;9.244;2023-02-15T08:16:36;13.20;97.00
3940;DHT22;1984;48.312;9.244;2023-02-15T08:21:30;13.70;95.60
3940;DHT22;1984;48.312;9.244;2023-02-15T08:23:56;14.10;94.80
3940;DHT22;1984;48.312;9.244;2023-02-15T08:26:22;14.60;93.90
3940;DHT22;1984;48.312;9.244;2023-02-15T08:28:48;15.20;92.60
3940;DHT22;1984;48.312;9.244;2023-02-15T08:31:14;15.80;91.60
3940;DHT22;1984;48.312;9.244;2023-02-15T08:33:42;16.20;90.50
3940;DHT22;1984;48.312;9.244;2023-02-15T08:36:10;16.50;89.80
3940;DHT22;1984;48.312;9.244;2023-02-15T08:38:36;16.70;88.70
3940;DHT22;1984;48.312;9.244;2023-02-15T08:43:38;16.30;88.90
3940;DHT22;1984;48.312;9.244;2023-02-15T08:46:05;16.00;90.00
3940;DHT22;1984;48.312;9.244;2023-02-15T08:48:31;16.00;89.00
3940;DHT22;1984;48.312;9.244;2023-02-15T08:50:56;16.00;89.70
3940;DHT22;1984;48.312;9.244;2023-02-15T08:53:22;16.30;89.10
3940;DHT22;1984;48.312;9.244;2023-02-15T08:55:55;16.60;87.50
3940;DHT22;1984;48.312;9.244;2023-02-15T08:58:21;17.00;87.10
3940;DHT22;1984;48.312;9.244;2023-02-15T09:00:47;17.40;86.30
3940;DHT22;1984;48.312;9.244;2023-02-15T09:03:13;17.70;84.40
3940;DHT22;1984;48.312;9.244;2023-02-15T09:05:38;17.90;83.70
3940;DHT22;1984;48.312;9.244;2023-02-15T09:08:04;17.90;83.00
3940;DHT22;1984;48.312;9.244;2023-02-15T09:10:29;18.10;83.10
3940;DHT22;1984;48.312;9.244;2023-02-15T09:12:55;18.30;82.50
3940;DHT22;1984;48.312;9.244;2023-02-15T09:15:20;18.50;81.20
3940;DHT22;1984;48.312;9.244;2023-02-15T09:17:46;18.70;81.80
3940;DHT22;1984;48.312;9.244;2023-02-15T09:20:11;18.90;79.70
3940;DHT22;1984;48.312;9.244;2023-02-15T09:22:37;18.90;80.70
3940;DHT22;1984;48.312;9.244;2023-02-15T09:25:02;19.30;79.60
3940;DHT22;1984;48.312;9.244;2023-02-15T09:27:29;19.50;79.30
3940;DHT22;1984;48.312;9.244;2023-02-15T09:29:55;19.90;77.40
3940;DHT22;1984;48.312;9.244;2023-02-15T09:32:20;20.40;75.50
3940;DHT22;1984;48.312;9.244;2023-02-15T09:34:47;20.90;74.20
3940;DHT22;1984;48.312;9.244;2023-02-15T09:37:13;21.20;73.80
3940;DHT22;1984;48.312;9.244;2023-02-15T09:39:41;21.50;72.10
3940;DHT22;1984;48.312;9.244;2023-02-15T09:50:18;22.20;69.80
3940;DHT22;1984;48.312;9.244;2023-02-15T10:01:07;22.40;68.70
3940;DHT22;1984;48.312;9.244;2023-02-15T10:03:56;22.50;68.70
3940;DHT22;1984;48.312;9.244;2023-02-15T10:23:23;23.00;67.10
3940;DHT22;1984;48.312;9.244;2023-02-15T10:26:11;23.50;65.80
3940;DHT22;1984;48.312;9.244;2023-02-15T10:29:07;24.20;64.40
3940;DHT22;1984;48.312;9.244;2023-02-15T10:31:50;24.50;63.90
3940;DHT22;1984;48.312;9.244;2023-02-15T10:34:18;24.70;63.50
3940;DHT22;1984;48.312;9.244;2023-02-15T10:37:09;24.30;63.20
3940;DHT22;1984;48.312;9.244;2023-02-15T10:50:50;24.40;63.50
3940;DHT22;1984;48.312;9.244;2023-02-15T11:06:43;24.30;61.80
3940;DHT22;1984;48.312;9.244;2023-02-15T11:09:14;23.70;63.50
3940;DHT22;1984;48.312;9.244;2023-02-15T11:11:45;23.50;60.40
3940;DHT22;1984;48.312;9.244;2023-02-15T11:14:35;23.10;60.20
3940;DHT22;1984;48.312;9.244;2023-02-15T11:17:36;22.90;60.40
3940;DHT22;1984;48.312;9.244;2023-02-15T11:20:23;22.40;59.90
3940;DHT22;1984;48.312;9.244;2023-02-15T11:22:51;22.20;62.40
3940;DHT22;1984;48.312;9.244;2023-02-15T11:25:23;21.70;63.10
3940;DHT22;1984;48.312;9.244;2023-02-15T11:27:49;21.10;64.60
3940;DHT22;1984;48.312;9.244;2023-02-15T11:30:23;20.80;63.60
3940;DHT22;1984;48.312;9.244;2023-02-15T11:32:53;20.70;62.80
3940;DHT22;1984;48.312;9.244;2023-02-15T11:37:54;20.50;61.70
3940;DHT22;1984;48.312;9.244;2023-02-15T11:40:32;20.40;62.10
3940;DHT22;1984;48.312;9.244;2023-02-15T11:43:03;20.30;62.60
3940;DHT22;1984;48.312;9.244;2023-02-15T11:45:32;20.10;60.60
3940;DHT22;1984;48.312;9.244;2023-02-15T11:48:00;20.00;62.20
3940;DHT22;1984;48.312;9.244;2023-02-15T11:50:29;19.80;62.70
3940;DHT22;1984;48.312;9.244;2023-02-15T11:53:13;19.60;62.80
3940;DHT22;1984;48.312;9.244;2023-02-15T11:55:41;19.40;63.10
3940;DHT22;1984;48.312;9.244;2023-02-15T11:58:21;19.20;62.80
3940;DHT22;1984;48.312;9.244;2023-02-15T12:00:52;19.10;61.50
3940;DHT22;1984;48.312;9.244;2023-02-15T12:06:05;18.80;60.60
3940;DHT22;1984;48.312;9.244;2023-02-15T12:08:42;18.70;64.50
3940;DHT22;1984;48.312;9.244;2023-02-15T12:11:15;18.60;61.30
3940;DHT22;1984;48.312;9.244;2023-02-15T12:14:09;18.40;60.10
3940;DHT22;1984;48.312;9.244;2023-02-15T12:16:48;18.20;60.50
3940;DHT22;1984;48.312;9.244;2023-02-15T12:21:54;17.80;57.50
3940;DHT22;1984;48.312;9.244;2023-02-15T12:24:32;17.70;59.80
3940;DHT22;1984;48.312;9.244;2023-02-15T12:27:11;17.70;57.10
3940;DHT22;1984;48.312;9.244;2023-02-15T12:30:06;17.60;58.80
3940;DHT22;1984;48.312;9.244;2023-02-15T12:32:48;17.50;61.70
3940;DHT22;1984;48.312;9.244;2023-02-15T12:35:28;17.40;57.20
3940;DHT22;1984;48.312;9.244;2023-02-15T12:38:03;17.30;57.00
3940;DHT22;1984;48.312;9.244;2023-02-15T12:40:31;17.20;57.10
3940;DHT22;1984;48.312;9.244;2023-02-15T12:42:58;17.00;55.70
3940;DHT22;1984;48.312;9.244;2023-02-15T12:45:32;17.00;55.20
3940;DHT22;1984;48.312;9.244;2023-02-15T12:48:17;17.00;55.70
3940;DHT22;1984;48.312;9.244;2023-02-15T12:50:48;16.90;51.90
3940;DHT22;1984;48.312;9.244;2023-02-15T12:53:22;16.90;52.20
3940;DHT22;1984;48.312;9.244;2023-02-15T12:55:53;16.90;51.60
3940;DHT22;1984;48.312;9.244;2023-02-15T12:58:21;16.90;51.40
3940;DHT22;1984;48.312;9.244;2023-02-15T13:01:19;16.90;53.40
3940;DHT22;1984;48.312;9.244;2023-02-15T13:04:05;16.90;53.30
3940;DHT22;1984;48.312;9.244;2023-02-15T13:06:35;16.80;54.60
3940;DHT22;1984;48.312;9.244;2023-02-15T13:14:48;16.60;57.30
3940;DHT22;1984;48.312;9.244;2023-02-15T13:17:17;16.50;56.60
3940;DHT22;1984;48.312;9.244;2023-02-15T13:19:52;16.50;56.40
3940;DHT22;1984;48.312;9.244;2023-02-15T13:22:35;16.40;56.20
3940;DHT22;1984;48.312;9.244;2023-02-15T13:25:29;16.40;56.30
3940;DHT22;1984;48.312;9.244;2023-02-15T13:27:59;16.40;58.00
3940;DHT22;1984;48.312;9.244;2023-02-15T13:30:31;16.40;57.70
3940;DHT22;1984;48.312;9.244;2023-02-15T13:33:08;16.40;58.50
3940;DHT22;1984;48.312;9.244;2023-02-15T13:41:08;16.40;57.60
3940;DHT22;1984;48.312;9.244;2023-02-15T13:43:56;16.40;57.10
3940;DHT22;1984;48.312;9.244;2023-02-15T13:46:34;16.30;56.50
3940;DHT22;1984;48.312;9.244;2023-02-15T13:49:36;16.30;57.10
3940;DHT22;1984;48.312;9.244;2023-02-15T13:52:23;16.20;56.10
3940;DHT22;1984;48.312;9.244;2023-02-15T13:57:59;16.10;55.90
3940;DHT22;1984;48.312;9.244;2023-02-15T14:03:47;16.10;52.40
3940;DHT22;1984;48.312;9.244;2023-02-15T14:06:26;16.10;53.20
3940;DHT22;1984;48.312;9.244;2023-02-15T14:11:35;16.00;51.50
3940;DHT22;1984;48.312;9.244;2023-02-15T14:17:00;16.00;55.30
3940;DHT22;1984;48.312;9.244;2023-02-15T14:22:29;16.00;55.40
3940;DHT22;1984;48.312;9.244;2023-02-15T14:25:15;15.90;55.70
3940;DHT22;1984;48.312;9.244;2023-02-15T14:30:21;15.90;57.70
3940;DHT22;1984;48.312;9.244;2023-02-15T14:32:52;15.90;57.40
3940;DHT22;1984;48.312;9.244;2023-02-15T14:35:21;15.90;57.40
3940;DHT22;1984;48.312;9.244;2023-02-15T14:38:02;15.90;55.20
3940;DHT22;1984;48.312;9.244;2023-02-15T14:40:36;15.90;56.60
3940;DHT22;1984;48.312;9.244;2023-02-15T14:43:42;15.90;57.90
3940;DHT22;1984;48.312;9.244;2023-02-15T14:47:03;15.80;58.20
3940;DHT22;1984;48.312;9.244;2023-02-15T14:56:42;15.70;59.40
3940;DHT22;1984;48.312;9.244;2023-02-15T14:59:19;15.70;58.20
3940;DHT22;1984;48.312;9.244;2023-02-15T15:01:57;15.70;59.20
3940;DHT22;1984;48.312;9.244;2023-02-15T15:04:27;15.60;57.60
3940;DHT22;1984;48.312;9.244;2023-02-15T15:07:19;15.40;57.70
3940;DHT22;1984;48.312;9.244;2023-02-15T15:09:57;15.30;58.80
3940;DHT22;1984;48.312;9.244;2023-02-15T15:14:53;15.10;59.40
3940;DHT22;1984;48.312;9.244;2023-02-15T15:20:00;14.90;59.00
3940;DHT22;1984;48.312;9.244;2023-02-15T15:22:28;14.90;58.60
3940;DHT22;1984;48.312;9.244;2023-02-15T15:24:54;15.00;59.30
3940;DHT22;1984;48.312;9.244;2023-02-15T15:36:20;15.10;60.00
3940;DHT22;1984;48.312;9.244;2023-02-15T15:41:56;15.10;59.60
3940;DHT22;1984;48.312;9.244;2023-02-15T15:47:39;15.00;59.30
3940;DHT22;1984;48.312;9.244;2023-02-15T15:50:15;14.80;61.20
3940;DHT22;1984;48.312;9.244;2023-02-15T15:52:46;14.80;60.60
3940;DHT22;1984;48.312;9.244;2023-02-15T15:55:19;14.70;63.30
3940;DHT22;1984;48.312;9.244;2023-02-15T15:57:48;14.60;63.40
3940;DHT22;1984;48.312;9.244;2023-02-15T16:00:37;14.50;63.90
3940;DHT22;1984;48.312;9.244;2023-02-15T16:03:05;14.30;64.40
3940;DHT22;1984;48.312;9.244;2023-02-15T16:05:39;14.10;64.30
3940;DHT22;1984;48.312;9.244;2023-02-15T16:08:04;13.90;64.80
3940;DHT22;1984;48.312;9.244;2023-02-15T16:10:31;13.70;67.70
3940;DHT22;1984;48.312;9.244;2023-02-15T16:12:58;13.40;68.60
3940;DHT22;1984;48.312;9.244;2023-02-15T16:15:35;13.20;69.70
3940;DHT22;1984;48.312;9.244;2023-02-15T16:18:01;13.00;70.00
3940;DHT22;1984;48.312;9.244;2023-02-15T16:20:33;12.70;71.40
3940;DHT22;1984;48.312;9.244;2023-02-15T16:28:34;12.10;74.80
3940;DHT22;1984;48.312;9.244;2023-02-15T16:31:10;11.80;75.40
3940;DHT22;1984;48.312;9.244;2023-02-15T16:33:38;11.60;75.10
3940;DHT22;1984;48.312;9.244;2023-02-15T16:36:05;11.40;77.00
3940;DHT22;1984;48.312;9.244;2023-02-15T16:41:09;10.90;78.80
3940;DHT22;1984;48.312;9.244;2023-02-15T16:43:37;10.70;79.50
3940;DHT22;1984;48.312;9.244;2023-02-15T16:46:11;10.50;80.90
3940;DHT22;1984;48.312;9.244;2023-02-15T16:48:44;10.30;82.20
3940;DHT22;1984;48.312;9.244;2023-02-15T16:51:20;10.00;83.30
3940;DHT22;1984;48.312;9.244;2023-02-15T16:53:47;9.80;84.10
3940;DHT22;1984;48.312;9.244;2023-02-15T16:56:25;9.60;85.40
3940;DHT22;1984;48.312;9.244;2023-02-15T16:58:54;9.40;86.80
3940;DHT22;1984;48.312;9.244;2023-02-15T17:01:22;9.20;88.20
3940;DHT22;1984;48.312;9.244;2023-02-15T17:03:50;8.90;88.30
3940;DHT22;1984;48.312;9.244;2023-02-15T17:06:24;8.70;88.40
3940;DHT22;1984;48.312;9.244;2023-02-15T17:08:51;8.60;90.10
3940;DHT22;1984;48.312;9.244;2023-02-15T17:17:20;8.30;91.10
3940;DHT22;1984;48.312;9.244;2023-02-15T17:19:24;8.10;91.50
3940;DHT22;1984;48.312;9.244;2023-02-15T17:22:05;8.00;92.00
3940;DHT22;1984;48.312;9.244;2023-02-15T17:24:43;7.90;92.30
3940;DHT22;1984;48.312;9.244;2023-02-15T17:27:18;7.70;92.60
3940;DHT22;1984;48.312;9.244;2023-02-15T17:29:46;7.50;93.00
3940;DHT22;1984;48.312;9.244;2023-02-15T17:32:16;7.40;93.50
3940;DHT22;1984;48.312;9.244;2023-02-15T17:34:47;7.20;94.00
3940;DHT22;1984;48.312;9.244;2023-02-15T17:40:32;6.80;94.90
3940;DHT22;1984;48.312;9.244;2023-02-15T17:42:58;6.80;95.20
3940;DHT22;1984;48.312;9.244;2023-02-15T17:45:40;6.70;95.30
3940;DHT22;1984;48.312;9.244;2023-02-15T17:48:19;6.60;95.50
3940;DHT22;1984;48.312;9.244;2023-02-15T17:50:45;6.50;95.70
3940;DHT22;1984;48.312;9.244;2023-02-15T17:53:11;6.40;96.10
3940;DHT22;1984;48.312;9.244;2023-02-15T17:55:37;6.30;96.60
3940;DHT22;1984;48.312;9.244;2023-02-15T17:58:11;6.20;97.10
3940;DHT22;1984;48.312;9.244;2023-02-15T18:00:43;6.10;97.50
3940;DHT22;1984;48.312;9.244;2023-02-15T18:03:45;6.00;97.90
3940;DHT22;1984;48.312;9.244;2023-02-15T18:06:30;5.80;98.30
3940;DHT22;1984;48.312;9.244;2023-02-15T18:09:17;5.70;98.60
3940;DHT22;1984;48.312;9.244;2023-02-15T18:12:11;5.70;98.90
3940;DHT22;1984;48.312;9.244;2023-02-15T18:14:39;5.60;99.00
3940;DHT22;1984;48.312;9.244;2023-02-15T18:17:10;5.60;99.20
3940;DHT22;1984;48.312;9.244;2023-02-15T18:19:38;5.50;99.50
3940;DHT22;1984;48.312;9.244;2023-02-15T18:22:18;5.30;99.90
3940;DHT22;1984;48.312;9.244;2023-02-15T18:24:44;5.10;99.90
3940;DHT22;1984;48.312;9.244;2023-02-15T18:27:11;5.10;99.90
3940;DHT22;1984;48.312;9.244;2023-02-15T18:29:37;5.00;99.90
3940;DHT22;1984;48.312;9.244;2023-02-15T18:32:06;4.80;99.90
3940;DHT22;1984;48.312;9.244;2023-02-15T18:34:35;4.70;99.90
3940;DHT22;1984;48.312;9.244;2023-02-15T18:37:04;4.60;99.90
3940;DHT22;1984;48.312;9.244;2023-02-15T18:42:03;4.50;99.90
3940;DHT22;1984;48.312;9.244;2023-02-15T18:44:29;4.50;99.90
3940;DHT22;1984;48.312;9.244;2023-02-15T18:46:54;4.40;99.90
3940;DHT22;1984;48.312;9.244;2023-02-15T18:49:20;4.30;99.90
3940;DHT22;1984;48.312;9.244;2023-02-15T18:51:45;4.20;99.90
3940;DHT22;1984;48.312;9.244;2023-02-15T18:54:22;4.10;99.90
3940;DHT22;1984;48.312;9.244;2023-02-15T18:56:57;4.00;99.90
3940;DHT22;1984;48.312;9.244;2023-02-15T18:59:24;3.90;99.90
3940;DHT22;1984;48.312;9.244;2023-02-15T19:01:50;3.80;99.90
3940;DHT22;1984;48.312;9.244;2023-02-15T19:04:16;3.70;99.90
3940;DHT22;1984;48.312;9.244;2023-02-15T19:06:47;3.70;99.90
3940;DHT22;1984;48.312;9.244;2023-02-15T19:09:18;3.70;99.90
3940;DHT22;1984;48.312;9.244;2023-02-15T19:11:49;3.80;99.90
3940;DHT22;1984;48.312;9.244;2023-02-15T19:14:30;3.80;99.90
3940;DHT22;1984;48.312;9.244;2023-02-15T19:16:57;3.80;99.90
3940;DHT22;1984;48.312;9.244;2023-02-15T19:19:23;3.70;99.90